Time;durP1;ratioP1;P1;durP2;ratioP2;P2;SDS_P1;SDS_P2;PMS_P1;PMS_P2;Temp;Humidity;BMP_temperature;BMP_pressure;BME280_temperature;BME280_humidity;BME280_pressure;Samples;Min_cycle;Max_cycle;Signal;HPM_P1;HPM_P2
2022/04/07 00:00:23;;;;;;;11.73;6.85;;;10.30;99.90;;;;;;5015599;28;20410;-77
2022/04/07 00:02:49;;;;;;;11.52;7.18;;;10.30;99.90;;;;;;5016539;28;20069;-77
2022/04/07 00:05:15;;;;;;;12.98;7.75;;;10.30;99.90;;;;;;5016025;28;20022;-76
2022/04/07 00:07:40;;;;;;;10.23;6.85;;;10.40;99.90;;;;;;5016368;28;20053;-76
2022/04/07 00:10:06;;;;;;;10.73;6.88;;;10.40;99.90;;;;;;4999050;28;20080;-77
2022/04/07 00:12:33;;;;;;;11.57;7.00;;;10.30;99.90;;;;;;4998508;28;20102;-78
2022/04/07 00:15:00;;;;;;;11.75;7.03;;;10.40;99.90;;;;;;5017410;28;20021;-77
2022/04/07 00:17:29;;;;;;;11.98;7.47;;;10.40;99.90;;;;;;5020021;28;20014;-76
2022/04/07 00:19:55;;;;;;;11.55;6.68;;;10.40;99.90;;;;;;5016540;28;20040;-76
2022/04/07 00:22:20;;;;;;;12.15;7.35;;;10.30;99.90;;;;;;4999205;28;20569;-77
2022/04/07 00:24:46;;;;;;;10.52;7.32;;;10.40;99.90;;;;;;5017194;28;20040;-77
2022/04/07 00:27:12;;;;;;;12.68;7.32;;;10.40;99.90;;;;;;5021131;28;20116;-77
2022/04/07 00:29:37;;;;;;;13.15;6.88;;;10.40;99.90;;;;;;5015766;28;20060;-78
2022/04/07 00:32:05;;;;;;;11.60;6.65;;;10.40;99.90;;;;;;5016055;28;20105;-77
2022/04/07 00:34:31;;;;;;;10.73;6.43;;;10.40;99.90;;;;;;5016158;28;20026;-77
2022/04/07 00:36:58;;;;;;;11.88;6.68;;;10.40;99.90;;;;;;5015376;28;20037;-76
2022/04/07 00:39:23;;;;;;;13.63;7.13;;;10.50;99.90;;;;;;5016863;28;20494;-77
2022/04/07 00:41:49;;;;;;;9.93;6.80;;;10.50;99.90;;;;;;5018038;28;20028;-77
2022/04/07 00:44:16;;;;;;;11.55;6.82;;;10.50;99.90;;;;;;4999791;28;20179;-77
2022/04/07 00:46:42;;;;;;;15.85;7.30;;;10.50;99.90;;;;;;5016100;28;20026;-76
2022/04/07 00:49:09;;;;;;;13.82;7.45;;;10.50;99.90;;;;;;5016021;28;20033;-77
2022/04/07 00:51:38;;;;;;;12.32;6.65;;;10.50;99.90;;;;;;5015592;28;20557;-77
2022/04/07 00:54:04;;;;;;;9.48;6.43;;;10.40;99.90;;;;;;5016436;28;20026;-77
2022/04/07 00:56:30;;;;;;;9.95;6.65;;;10.40;99.90;;;;;;5016654;28;20022;-75
2022/04/07 00:58:57;;;;;;;12.48;7.20;;;10.40;99.90;;;;;;5002918;28;20482;-77
2022/04/07 01:01:27;;;;;;;10.70;6.65;;;10.40;99.90;;;;;;5003510;28;20034;-77
2022/04/07 01:03:54;;;;;;;15.80;7.70;;;10.50;99.90;;;;;;5015931;28;20033;-77
2022/04/07 01:06:19;;;;;;;13.77;6.82;;;10.50;99.90;;;;;;5015831;28;20026;-77
2022/04/07 01:08:46;;;;;;;8.70;6.18;;;10.60;99.90;;;;;;5017218;28;20037;-77
2022/04/07 01:11:12;;;;;;;14.40;7.15;;;10.50;99.90;;;;;;5018918;28;20080;-77
2022/04/07 01:13:49;;;;;;;10.63;6.53;;;10.50;99.90;;;;;;5022869;28;20050;-77
2022/04/07 01:16:16;;;;;;;12.82;7.10;;;10.50;99.90;;;;;;5024078;28;20022;-77
2022/04/07 01:18:44;;;;;;;13.80;7.40;;;10.50;99.90;;;;;;5008168;28;20317;-77
2022/04/07 01:21:11;;;;;;;14.35;7.13;;;10.50;99.90;;;;;;5021159;28;20042;-76
2022/04/07 01:23:38;;;;;;;12.98;7.03;;;10.50;99.90;;;;;;5019062;28;20030;-76
2022/04/07 01:26:08;;;;;;;13.60;7.53;;;10.50;99.90;;;;;;5019269;28;20024;-78
2022/04/07 01:28:34;;;;;;;12.15;7.20;;;10.50;99.90;;;;;;5020136;28;20036;-76
2022/04/07 01:30:59;;;;;;;11.65;7.43;;;10.50;99.90;;;;;;5019578;28;20463;-76
2022/04/07 01:33:25;;;;;;;13.82;7.80;;;10.40;99.90;;;;;;5001712;28;20080;-78
2022/04/07 01:35:52;;;;;;;13.65;8.85;;;10.40;99.90;;;;;;5020311;28;20029;-77
2022/04/07 01:38:19;;;;;;;16.58;8.90;;;10.30;99.90;;;;;;5014401;28;20557;-77
2022/04/07 01:40:47;;;;;;;13.65;7.53;;;10.30;99.90;;;;;;5014398;28;20030;-76
2022/04/07 01:43:14;;;;;;;16.50;8.25;;;10.30;99.90;;;;;;5013889;28;20025;-77
2022/04/07 01:45:40;;;;;;;13.75;8.38;;;10.30;99.90;;;;;;5013783;28;20054;-78
2022/04/07 01:48:08;;;;;;;14.43;8.25;;;10.20;99.90;;;;;;5014300;28;20025;-77
2022/04/07 01:50:35;;;;;;;13.23;7.65;;;10.20;99.90;;;;;;5015618;28;20381;-79
2022/04/07 01:53:01;;;;;;;17.40;8.40;;;10.30;99.90;;;;;;5014270;28;20021;-76
2022/04/07 01:55:27;;;;;;;16.13;8.20;;;10.30;99.90;;;;;;5013437;28;20030;-77
2022/04/07 01:57:54;;;;;;;9.70;7.78;;;10.30;99.90;;;;;;5017174;28;20077;-76
2022/04/07 02:00:19;;;;;;;17.40;7.90;;;10.30;99.90;;;;;;5022402;28;20022;-76
2022/04/07 02:02:45;;;;;;;15.32;7.50;;;10.40;99.90;;;;;;4997462;28;20121;-77
2022/04/07 02:05:13;;;;;;;19.13;8.00;;;10.40;99.90;;;;;;5013909;28;20046;-77
2022/04/07 02:07:41;;;;;;;15.48;7.93;;;10.40;99.90;;;;;;5012720;28;20076;-77
2022/04/07 02:10:08;;;;;;;23.02;8.40;;;10.40;99.90;;;;;;5013868;28;20076;-77
2022/04/07 02:12:37;;;;;;;14.32;8.15;;;10.40;99.90;;;;;;5014642;28;20033;-77
2022/04/07 02:15:06;;;;;;;18.75;8.30;;;10.30;99.90;;;;;;5014531;28;20105;-77
2022/04/07 02:17:33;;;;;;;18.35;8.00;;;10.30;99.90;;;;;;5014133;28;20426;-78
2022/04/07 02:19:59;;;;;;;13.57;7.80;;;10.30;99.90;;;;;;5014074;28;20029;-77
2022/04/07 02:22:28;;;;;;;20.00;8.02;;;10.30;99.90;;;;;;5000261;28;20033;-76
2022/04/07 02:24:55;;;;;;;14.07;7.90;;;10.30;99.90;;;;;;5014478;28;20037;-77
2022/04/07 02:27:20;;;;;;;14.02;7.97;;;10.30;99.90;;;;;;5013681;28;20107;-78
2022/04/07 02:29:52;;;;;;;16.25;7.88;;;10.30;99.90;;;;;;5131135;27;20387;-77
2022/04/07 02:32:19;;;;;;;13.23;7.13;;;10.40;99.90;;;;;;5131716;28;20167;-77
2022/04/07 02:34:44;;;;;;;16.63;7.47;;;10.30;99.90;;;;;;5131860;28;20030;-75
2022/04/07 02:37:10;;;;;;;15.32;7.70;;;10.40;99.90;;;;;;5130135;27;20027;-75
2022/04/07 02:39:36;;;;;;;13.38;7.18;;;10.40;99.90;;;;;;5130530;27;20069;-75
2022/04/07 02:42:02;;;;;;;12.45;7.35;;;10.40;99.90;;;;;;5130623;27;20016;-75
2022/04/07 02:44:28;;;;;;;15.52;7.55;;;10.40;99.90;;;;;;5131163;28;20444;-77
2022/04/07 02:46:54;;;;;;;14.55;7.72;;;10.40;99.90;;;;;;5131097;28;20031;-77
2022/04/07 02:49:19;;;;;;;16.00;6.70;;;10.40;99.90;;;;;;5131341;27;20083;-77
2022/04/07 02:51:45;;;;;;;15.75;7.30;;;10.50;99.90;;;;;;5138685;27;20028;-76
2022/04/07 02:54:10;;;;;;;15.98;7.55;;;10.50;99.90;;;;;;5134717;28;20110;-78
2022/04/07 02:56:36;;;;;;;14.27;7.65;;;10.50;99.90;;;;;;5130458;27;20024;-76
2022/04/07 02:59:02;;;;;;;16.20;7.70;;;10.50;99.90;;;;;;5129170;28;20023;-75
2022/04/07 03:01:28;;;;;;;14.40;8.55;;;10.40;99.90;;;;;;5130681;27;20015;-77
2022/04/07 03:03:55;;;;;;;12.23;7.85;;;10.40;99.90;;;;;;5130674;28;20051;-77
2022/04/07 03:06:21;;;;;;;12.70;7.43;;;10.30;99.90;;;;;;5129176;28;20024;-78
2022/04/07 03:08:47;;;;;;;12.40;6.70;;;10.20;99.90;;;;;;5132568;27;20092;-78
2022/04/07 03:11:13;;;;;;;11.88;7.15;;;10.20;99.90;;;;;;5130459;28;20446;-78
2022/04/07 03:13:39;;;;;;;14.98;7.90;;;10.20;99.90;;;;;;5130733;28;20023;-78
2022/04/07 03:16:05;;;;;;;13.45;8.20;;;10.20;99.90;;;;;;5130532;27;20024;-78
2022/04/07 03:18:32;;;;;;;17.15;9.30;;;10.20;99.90;;;;;;5129621;27;20031;-77
2022/04/07 03:20:57;;;;;;;16.67;9.63;;;10.10;99.90;;;;;;5132215;27;20066;-78
2022/04/07 03:23:23;;;;;;;17.05;10.02;;;10.10;99.90;;;;;;5132185;27;20492;-79
2022/04/07 03:25:49;;;;;;;21.13;10.93;;;10.00;99.90;;;;;;5132786;27;20023;-76
2022/04/07 03:28:14;;;;;;;16.55;10.95;;;10.10;99.90;;;;;;5129619;27;20036;-77
2022/04/07 03:30:40;;;;;;;18.38;11.45;;;10.20;99.90;;;;;;5131314;27;20016;-77
2022/04/07 03:33:06;;;;;;;19.33;12.57;;;10.10;99.90;;;;;;5130178;27;20382;-77
2022/04/07 03:35:32;;;;;;;18.40;12.25;;;10.10;99.90;;;;;;5131578;27;20016;-77
2022/04/07 03:37:58;;;;;;;20.17;13.18;;;10.10;99.90;;;;;;5135355;27;20038;-77
2022/04/07 03:40:25;;;;;;;23.27;12.35;;;10.20;99.90;;;;;;5124873;27;20114;-78
2022/04/07 03:42:51;;;;;;;19.42;12.23;;;10.20;99.90;;;;;;5115726;28;20026;-76
2022/04/07 03:45:17;;;;;;;20.00;12.98;;;10.20;99.90;;;;;;5115772;28;20451;-77
2022/04/07 03:47:43;;;;;;;22.63;13.25;;;10.30;99.90;;;;;;5115330;28;20099;-78
2022/04/07 03:50:08;;;;;;;19.00;12.75;;;10.30;99.90;;;;;;5113898;28;20047;-77
2022/04/07 03:52:34;;;;;;;20.15;13.82;;;10.30;99.90;;;;;;5115446;28;20469;-76
2022/04/07 03:54:59;;;;;;;18.95;13.10;;;10.30;99.90;;;;;;5115219;27;20448;-77
2022/04/07 03:57:25;;;;;;;19.38;12.55;;;10.30;99.90;;;;;;5115511;28;20031;-78
2022/04/07 03:59:50;;;;;;;17.08;12.07;;;10.30;99.90;;;;;;5117468;28;20072;-78
2022/04/07 04:02:16;;;;;;;19.55;11.77;;;10.30;99.90;;;;;;5116495;28;20035;-75
2022/04/07 04:04:41;;;;;;;17.52;11.38;;;10.30;99.90;;;;;;5115409;28;20519;-76
2022/04/07 04:07:07;;;;;;;16.40;10.75;;;10.30;99.90;;;;;;5115247;28;20035;-77
2022/04/07 04:09:33;;;;;;;15.25;10.63;;;10.30;99.90;;;;;;5117160;28;20479;-77
2022/04/07 04:11:59;;;;;;;16.75;9.55;;;10.30;99.90;;;;;;5116203;28;20095;-77
2022/04/07 04:14:24;;;;;;;14.90;9.77;;;10.40;99.90;;;;;;5115973;27;20045;-77
2022/04/07 04:16:50;;;;;;;13.38;9.40;;;10.40;99.90;;;;;;5116178;28;20022;-78
2022/04/07 04:19:16;;;;;;;14.55;9.18;;;10.40;99.90;;;;;;5115690;28;20020;-77
2022/04/07 04:21:41;;;;;;;11.27;8.30;;;10.40;99.90;;;;;;5117378;28;20024;-78
2022/04/07 04:24:07;;;;;;;16.83;8.10;;;10.40;99.90;;;;;;5116196;28;20074;-79
2022/04/07 04:26:33;;;;;;;13.13;8.25;;;10.40;99.90;;;;;;5121738;28;20036;-77
2022/04/07 04:28:58;;;;;;;13.65;7.85;;;10.40;99.90;;;;;;5117008;28;20031;-77
2022/04/07 04:31:27;;;;;;;14.93;7.55;;;10.40;99.90;;;;;;5116629;27;20015;-78
2022/04/07 04:33:53;;;;;;;11.82;7.30;;;10.30;99.90;;;;;;5123721;28;20506;-79
2022/04/07 04:36:18;;;;;;;14.93;7.28;;;10.40;99.90;;;;;;5123769;28;20035;-78
2022/04/07 04:38:44;;;;;;;11.05;7.20;;;10.40;99.90;;;;;;5120130;28;20031;-76
2022/04/07 04:41:09;;;;;;;13.80;7.10;;;10.40;99.90;;;;;;5119001;28;20073;-76
2022/04/07 04:43:35;;;;;;;11.65;6.63;;;10.40;99.90;;;;;;5123459;28;20028;-78
2022/04/07 04:46:01;;;;;;;7.80;6.15;;;10.40;99.90;;;;;;5116896;28;20448;-78
2022/04/07 04:48:27;;;;;;;14.15;6.32;;;10.30;99.90;;;;;;5116455;28;20066;-76
2022/04/07 04:50:52;;;;;;;10.98;6.30;;;10.30;99.90;;;;;;5116637;28;20024;-78
2022/04/07 04:53:18;;;;;;;10.57;6.38;;;10.40;99.90;;;;;;5116315;28;20054;-77
2022/04/07 04:55:43;;;;;;;12.27;6.57;;;10.40;99.90;;;;;;5119937;28;20088;-78
2022/04/07 04:58:09;;;;;;;11.20;6.40;;;10.40;99.90;;;;;;5124468;28;20383;-76
2022/04/07 05:00:34;;;;;;;11.05;6.80;;;10.40;99.90;;;;;;5124570;28;20027;-77
2022/04/07 05:03:00;;;;;;;14.85;7.13;;;10.40;99.90;;;;;;5123066;28;20079;-77
2022/04/07 05:05:25;;;;;;;10.38;6.68;;;10.40;99.90;;;;;;5121316;28;20392;-77
2022/04/07 05:07:51;;;;;;;13.02;7.18;;;10.30;99.90;;;;;;5121313;28;20027;-78
2022/04/07 05:10:18;;;;;;;9.52;7.00;;;10.30;99.90;;;;;;5116381;28;20023;-78
2022/04/07 05:12:44;;;;;;;17.83;8.10;;;10.30;99.90;;;;;;5116840;28;20023;-77
2022/04/07 05:15:09;;;;;;;18.65;8.38;;;10.30;99.90;;;;;;5122158;27;20019;-78
2022/04/07 05:17:35;;;;;;;11.90;8.48;;;10.20;99.90;;;;;;5121127;28;20433;-78
2022/04/07 05:20:01;;;;;;;13.05;7.43;;;10.20;99.90;;;;;;5121507;28;20035;-79
2022/04/07 05:22:26;;;;;;;15.43;7.00;;;10.30;99.90;;;;;;5119452;28;20059;-76
2022/04/07 05:24:52;;;;;;;13.82;7.28;;;10.40;99.90;;;;;;5120955;28;20059;-79
2022/04/07 05:27:17;;;;;;;15.55;8.05;;;10.40;99.90;;;;;;5120111;28;20076;-77
2022/04/07 05:29:43;;;;;;;12.43;6.78;;;10.40;99.90;;;;;;5120495;28;20089;-80
2022/04/07 05:32:08;;;;;;;12.30;6.45;;;10.40;99.90;;;;;;5123831;28;20038;-79
2022/04/07 05:34:34;;;;;;;10.93;6.63;;;10.40;99.90;;;;;;5120694;28;20027;-78
2022/04/07 05:37:00;;;;;;;15.38;6.43;;;10.40;99.90;;;;;;5123732;28;20024;-79
2022/04/07 05:39:25;;;;;;;15.80;5.70;;;10.40;99.90;;;;;;5120670;28;20027;-77
2022/04/07 05:41:51;;;;;;;9.57;5.13;;;10.40;99.90;;;;;;5120060;28;20469;-80
2022/04/07 05:44:17;;;;;;;12.65;5.78;;;10.40;99.90;;;;;;5117790;28;20024;-78
2022/04/07 05:46:42;;;;;;;12.93;5.82;;;10.30;99.90;;;;;;5117898;28;20029;-79
2022/04/07 05:49:10;;;;;;;11.40;4.85;;;10.40;99.90;;;;;;5117916;28;20380;-78
2022/04/07 05:51:36;;;;;;;12.77;4.78;;;10.40;99.90;;;;;;5122616;28;20079;-74
2022/04/07 05:54:02;;;;;;;11.30;4.95;;;10.40;99.90;;;;;;5120823;28;20344;-79
2022/04/07 05:56:27;;;;;;;7.13;4.50;;;10.30;99.90;;;;;;5118093;28;20035;-79
2022/04/07 05:58:53;;;;;;;14.90;4.93;;;10.30;99.90;;;;;;5120127;28;20028;-77
2022/04/07 06:01:19;;;;;;;13.68;5.25;;;10.20;99.90;;;;;;5117767;28;20068;-76
2022/04/07 06:03:44;;;;;;;7.70;4.22;;;10.20;99.90;;;;;;5115722;28;20019;-77
2022/04/07 06:06:10;;;;;;;7.65;4.60;;;10.20;99.90;;;;;;5118850;28;20023;-78
2022/04/07 06:08:35;;;;;;;15.20;4.90;;;10.20;99.90;;;;;;5114692;28;20039;-78
2022/04/07 06:11:01;;;;;;;9.48;4.60;;;10.20;99.90;;;;;;5114121;28;20016;-78
2022/04/07 06:13:26;;;;;;;13.05;5.10;;;10.10;99.90;;;;;;5114305;28;20022;-76
2022/04/07 06:15:52;;;;;;;13.77;4.70;;;10.20;99.90;;;;;;5112914;28;20061;-75
2022/04/07 06:18:17;;;;;;;11.40;4.57;;;10.20;99.90;;;;;;5113102;28;20107;-77
2022/04/07 06:20:45;;;;;;;14.90;4.55;;;10.20;99.90;;;;;;5113905;28;20020;-76
2022/04/07 06:23:10;;;;;;;9.15;4.15;;;10.20;99.90;;;;;;5113637;28;20020;-77
2022/04/07 06:25:36;;;;;;;19.92;5.57;;;10.20;99.90;;;;;;5112339;28;20027;-76
2022/04/07 06:28:04;;;;;;;10.80;4.07;;;10.30;99.90;;;;;;5112740;28;20035;-76
2022/04/07 06:30:29;;;;;;;12.07;4.60;;;10.30;99.90;;;;;;5117525;28;20015;-81
2022/04/07 06:32:56;;;;;;;12.88;4.97;;;10.40;99.90;;;;;;5117971;28;20027;-79
2022/04/07 06:35:22;;;;;;;11.88;4.70;;;10.40;99.90;;;;;;5123313;28;20019;-76
2022/04/07 06:37:53;;;;;;;14.38;5.20;;;10.40;99.90;;;;;;5127949;28;20062;-76
2022/04/07 06:40:20;;;;;;;14.40;5.40;;;10.50;99.90;;;;;;5118864;28;20068;-77
2022/04/07 06:42:47;;;;;;;17.65;5.40;;;10.50;99.90;;;;;;5114968;28;20436;-77
2022/04/07 06:45:13;;;;;;;17.35;5.72;;;10.60;99.90;;;;;;5118964;28;20019;-77
2022/04/07 06:47:38;;;;;;;16.05;5.97;;;10.60;99.90;;;;;;5113687;28;20031;-78
2022/04/07 06:50:06;;;;;;;27.10;7.55;;;10.70;99.90;;;;;;5116039;28;20019;-77
2022/04/07 06:52:31;;;;;;;16.88;5.90;;;10.70;99.90;;;;;;5116410;28;20543;-77
2022/04/07 06:54:57;;;;;;;15.00;6.35;;;10.80;99.90;;;;;;5119341;28;20113;-80
2022/04/07 06:57:22;;;;;;;16.52;5.65;;;10.70;99.90;;;;;;5119581;28;20030;-80
2022/04/07 06:59:48;;;;;;;21.92;6.32;;;10.70;99.90;;;;;;5117041;28;20070;-78
2022/04/07 07:02:14;;;;;;;18.60;6.43;;;10.70;99.90;;;;;;5115819;28;20024;-78
2022/04/07 07:04:40;;;;;;;18.02;6.45;;;10.80;99.90;;;;;;5114960;28;20027;-78
2022/04/07 07:07:05;;;;;;;26.70;5.32;;;10.80;99.90;;;;;;5114968;28;20549;-78
2022/04/07 07:09:31;;;;;;;24.02;6.70;;;10.80;99.90;;;;;;5115381;28;20489;-78
2022/04/07 07:11:56;;;;;;;20.42;6.72;;;10.90;99.90;;;;;;5118786;28;20027;-76
2022/04/07 07:14:22;;;;;;;19.60;5.65;;;10.90;99.90;;;;;;5118131;28;20019;-77
2022/04/07 07:16:48;;;;;;;18.50;5.35;;;11.10;99.90;;;;;;5116617;28;20024;-77
2022/04/07 07:19:15;;;;;;;16.42;6.43;;;11.10;99.90;;;;;;5118829;28;20031;-77
2022/04/07 07:21:41;;;;;;;19.23;6.38;;;11.20;99.90;;;;;;5119419;28;20058;-77
2022/04/07 07:24:06;;;;;;;16.60;5.03;;;11.20;99.90;;;;;;5117796;28;20027;-77
2022/04/07 07:26:33;;;;;;;21.15;5.60;;;11.10;99.90;;;;;;5116651;28;20020;-77
2022/04/07 07:28:58;;;;;;;16.70;5.07;;;11.10;99.90;;;;;;5116469;28;20023;-78
2022/04/07 07:31:24;;;;;;;17.55;5.45;;;11.10;99.90;;;;;;5115737;28;20088;-77
2022/04/07 07:33:49;;;;;;;21.17;6.18;;;11.10;99.90;;;;;;5121047;28;20026;-80
2022/04/07 07:36:15;;;;;;;17.80;5.38;;;11.10;99.90;;;;;;5122412;28;20019;-78
2022/04/07 07:38:40;;;;;;;16.20;5.78;;;11.00;99.90;;;;;;5118412;28;20088;-77
2022/04/07 07:41:06;;;;;;;19.73;7.25;;;10.90;99.90;;;;;;5122255;28;20131;-78
2022/04/07 07:43:32;;;;;;;13.50;4.68;;;10.80;99.90;;;;;;5122115;28;20048;-79
2022/04/07 07:45:57;;;;;;;17.98;5.80;;;10.90;99.90;;;;;;5119325;28;20063;-78
2022/04/07 07:48:32;;;;;;;20.98;5.65;;;10.80;99.90;;;;;;5118275;28;20028;-78
2022/04/07 07:50:57;;;;;;;;;;;10.70;99.90;;;;;;5117179;28;20056;-78
2022/04/07 07:53:24;;;;;;;24.35;6.28;;;10.70;99.90;;;;;;5120507;28;19998;-79
2022/04/07 07:55:49;;;;;;;17.90;5.97;;;10.60;99.90;;;;;;5120729;28;20356;-77
2022/04/07 07:58:15;;;;;;;20.90;5.55;;;10.60;99.90;;;;;;5119149;28;20039;-77
2022/04/07 08:00:41;;;;;;;18.58;5.65;;;10.50;99.90;;;;;;5127587;27;20026;-77
2022/04/07 08:03:07;;;;;;;19.10;5.63;;;10.40;99.90;;;;;;5120162;27;20557;-77
2022/04/07 08:05:33;;;;;;;19.50;5.38;;;10.40;99.90;;;;;;5118007;28;20043;-77
2022/04/07 08:07:58;;;;;;;15.98;4.85;;;10.40;99.90;;;;;;5117010;28;20062;-78
2022/04/07 08:10:24;;;;;;;17.58;4.88;;;10.40;99.90;;;;;;5117873;28;20441;-78
2022/04/07 08:12:49;;;;;;;19.77;4.85;;;10.50;99.90;;;;;;5129320;28;20041;-81
2022/04/07 08:15:15;;;;;;;17.83;4.78;;;10.40;99.90;;;;;;5130250;28;20039;-82
2022/04/07 08:17:40;;;;;;;20.88;5.07;;;10.50;99.90;;;;;;5123954;28;20027;-78
2022/04/07 08:20:07;;;;;;;20.90;4.63;;;10.40;99.90;;;;;;5122038;28;20140;-78
2022/04/07 08:22:33;;;;;;;15.73;4.47;;;10.40;99.90;;;;;;5121670;28;20019;-80
2022/04/07 08:24:58;;;;;;;14.18;4.60;;;10.50;99.90;;;;;;5121343;28;20575;-78
2022/04/07 08:27:24;;;;;;;14.65;4.38;;;10.40;99.90;;;;;;5123423;28;20106;-75
2022/04/07 08:29:51;;;;;;;17.65;3.90;;;10.40;99.90;;;;;;5121376;27;20508;-73
2022/04/07 08:32:16;;;;;;;15.68;4.57;;;10.40;99.90;;;;;;5117435;28;20031;-74
2022/04/07 08:34:42;;;;;;;14.93;4.97;;;10.40;99.90;;;;;;5123364;28;20031;-79
2022/04/07 08:37:07;;;;;;;16.27;4.00;;;10.40;99.90;;;;;;5129750;28;20087;-77
2022/04/07 08:39:33;;;;;;;13.93;3.58;;;10.40;99.90;;;;;;5131614;28;20027;-76
2022/04/07 08:42:01;;;;;;;13.98;3.58;;;10.40;99.90;;;;;;5125381;28;20075;-76
2022/04/07 08:44:31;;;;;;;12.95;3.50;;;10.40;99.90;;;;;;5121991;28;20531;-76
2022/04/07 08:46:58;;;;;;;23.60;4.20;;;10.30;99.90;;;;;;5118012;28;20019;-76
2022/04/07 08:49:25;;;;;;;9.43;3.33;;;10.30;99.90;;;;;;5120421;28;20027;-75
2022/04/07 08:51:52;;;;;;;6.85;3.00;;;10.30;99.90;;;;;;5120803;28;20067;-77
2022/04/07 08:54:21;;;;;;;15.07;3.65;;;10.20;99.90;;;;;;5121603;28;20498;-77
2022/04/07 08:56:48;;;;;;;12.40;3.80;;;10.20;99.90;;;;;;5120010;28;20535;-77
2022/04/07 08:59:14;;;;;;;15.50;3.45;;;10.10;99.90;;;;;;5117906;28;20051;-77
2022/04/07 09:01:40;;;;;;;3.13;1.30;;;10.10;99.90;;;;;;5117396;28;20073;-75
2022/04/07 09:04:06;;;;;;;11.52;4.82;;;9.90;99.90;;;;;;5118474;28;20027;-73
2022/04/07 09:06:35;;;;;;;5.40;1.65;;;9.60;99.90;;;;;;5117155;28;20032;-74
2022/04/07 09:09:18;;;;;;;4.38;1.10;;;9.30;99.90;;;;;;5117597;28;20377;-75
2022/04/07 09:11:44;;;;;;;3.28;0.90;;;9.00;99.90;;;;;;5114105;28;20016;-76
2022/04/07 09:14:11;;;;;;;4.05;1.20;;;8.60;99.90;;;;;;5114261;28;20030;-75
2022/04/07 09:16:40;;;;;;;3.83;1.50;;;8.40;99.90;;;;;;5113952;28;20035;-75
2022/04/07 09:19:08;;;;;;;3.63;1.23;;;8.20;99.90;;;;;;5114517;28;20115;-75
2022/04/07 09:21:34;;;;;;;4.97;1.10;;;8.20;99.90;;;;;;5114574;28;20388;-74
2022/04/07 09:24:00;;;;;;;4.35;1.50;;;8.20;99.90;;;;;;5114603;28;20026;-75
2022/04/07 09:26:28;;;;;;;7.45;1.20;;;8.10;99.90;;;;;;5112648;28;20023;-76
2022/04/07 09:28:57;;;;;;;3.28;1.02;;;8.10;99.90;;;;;;5114785;28;20388;-77
2022/04/07 09:31:23;;;;;;;3.72;0.90;;;8.10;99.90;;;;;;5115200;28;20020;-74
2022/04/07 09:33:54;;;;;;;2.25;0.95;;;8.10;99.90;;;;;;5113532;28;20073;-75
2022/04/07 09:36:21;;;;;;;3.45;0.90;;;8.10;99.90;;;;;;5114531;28;20030;-75
2022/04/07 09:38:52;;;;;;;2.53;0.73;;;8.10;99.90;;;;;;5114521;28;20027;-74
2022/04/07 09:41:21;;;;;;;3.03;0.80;;;8.20;99.90;;;;;;5115174;28;20024;-75
2022/04/07 09:44:00;;;;;;;2.90;1.10;;;8.10;99.90;;;;;;5115531;28;20026;-74
2022/04/07 09:46:38;;;;;;;3.83;1.10;;;8.20;99.90;;;;;;5121139;28;20560;-75
2022/04/07 09:49:11;;;;;;;3.08;1.05;;;8.20;99.90;;;;;;5118284;28;20026;-76
2022/04/07 09:51:47;;;;;;;2.35;1.10;;;8.10;99.90;;;;;;5121384;28;20051;-76
2022/04/07 09:54:16;;;;;;;3.45;1.08;;;8.10;99.90;;;;;;5116359;28;20015;-74
2022/04/07 09:56:42;;;;;;;1.95;0.90;;;8.10;99.90;;;;;;5125535;28;20076;-74
2022/04/07 09:59:09;;;;;;;6.60;1.08;;;8.00;99.90;;;;;;5118577;28;20020;-76
2022/04/07 10:01:38;;;;;;;5.53;1.15;;;8.00;99.90;;;;;;5116991;28;20031;-76
2022/04/07 10:04:05;;;;;;;3.72;1.92;;;7.90;99.90;;;;;;5119011;28;20626;-76
2022/04/07 10:06:33;;;;;;;2.70;1.50;;;7.80;99.90;;;;;;5117876;28;20031;-76
2022/04/07 10:09:01;;;;;;;9.18;2.97;;;7.80;99.90;;;;;;5114963;28;20499;-77
2022/04/07 10:11:29;;;;;;;3.55;1.13;;;7.80;99.90;;;;;;5113691;28;20026;-77
2022/04/07 10:13:56;;;;;;;7.50;1.70;;;7.90;99.90;;;;;;5122811;28;20012;-75
2022/04/07 10:16:22;;;;;;;2.35;0.90;;;7.90;99.90;;;;;;5117803;28;20067;-77
2022/04/07 10:19:33;;;;;;;5.03;1.33;;;7.80;99.90;;;;;;5118853;28;20028;-76
2022/04/07 10:22:13;;;;;;;4.88;1.02;;;7.80;99.90;;;;;;5075509;28;20409;-76
2022/04/07 10:24:53;;;;;;;3.65;1.25;;;7.70;99.90;;;;;;5074219;28;20436;-76
2022/04/07 10:27:23;;;;;;;4.13;1.67;;;7.70;99.90;;;;;;5103617;28;20119;-75
2022/04/07 10:30:07;;;;;;;7.22;1.38;;;7.60;99.90;;;;;;5116281;28;20028;-75
2022/04/07 10:32:54;;;;;;;3.45;1.17;;;7.50;99.90;;;;;;5114537;28;20019;-76
2022/04/07 10:35:33;;;;;;;3.17;1.02;;;7.60;99.90;;;;;;5114435;28;20533;-76
2022/04/07 10:38:05;;;;;;;3.45;1.52;;;7.60;99.90;;;;;;5114149;28;20054;-77
2022/04/07 10:40:48;;;;;;;3.95;1.10;;;7.50;99.90;;;;;;5122694;28;20024;-75
2022/04/07 10:43:14;;;;;;;5.68;1.30;;;7.40;99.90;;;;;;5116605;28;20020;-77
2022/04/07 10:45:45;;;;;;;2.55;1.20;;;7.30;99.90;;;;;;5116038;28;20060;-76
2022/04/07 10:48:19;;;;;;;9.88;3.53;;;7.30;99.90;;;;;;5115627;28;20024;-76
2022/04/07 10:50:49;;;;;;;26.77;16.52;;;7.30;99.90;;;;;;5114168;28;20076;-76
2022/04/07 10:53:22;;;;;;;6.38;1.25;;;7.30;99.90;;;;;;5116682;27;20027;-76
2022/04/07 10:56:05;;;;;;;4.85;1.50;;;7.30;99.90;;;;;;5116729;28;20023;-76
2022/04/07 10:58:49;;;;;;;5.88;1.50;;;7.30;99.90;;;;;;5117102;28;20031;-76
2022/04/07 11:01:16;;;;;;;3.65;1.13;;;7.20;99.90;;;;;;5117776;28;20032;-75
2022/04/07 11:04:25;;;;;;;7.40;1.30;;;7.20;99.90;;;;;;5117484;28;20039;-77
2022/04/07 11:07:10;;;;;;;5.75;1.63;;;7.00;99.90;;;;;;5116313;28;20024;-76
2022/04/07 11:09:47;;;;;;;;;;;7.10;99.90;;;;;;5117263;28;20027;-74
2022/04/07 11:12:29;;;;;;;16.35;4.13;;;7.10;99.90;;;;;;5116702;28;19904;-76
2022/04/07 11:15:17;;;;;;;6.85;1.48;;;7.40;99.90;;;;;;5117504;28;20043;-75
2022/04/07 11:17:43;;;;;;;6.35;1.70;;;7.80;99.90;;;;;;5118069;28;20410;-75
2022/04/07 11:20:23;;;;;;;6.03;1.67;;;8.30;99.90;;;;;;5117042;28;20023;-75
2022/04/07 11:22:54;;;;;;;7.07;1.75;;;9.20;99.90;;;;;;5120031;28;20468;-76
2022/04/07 11:25:22;;;;;;;8.50;1.60;;;10.10;99.90;;;;;;5117270;28;20072;-76
2022/04/07 11:28:06;;;;;;;7.50;1.60;;;10.40;99.90;;;;;;5116406;28;20024;-75
2022/04/07 11:30:40;;;;;;;2.80;1.13;;;10.70;99.90;;;;;;5118684;28;20122;-75
2022/04/07 11:33:18;;;;;;;4.65;1.50;;;10.90;99.90;;;;;;5116414;28;20024;-75
2022/04/07 11:36:10;;;;;;;5.00;1.38;;;10.70;99.90;;;;;;5115797;28;20024;-75
2022/04/07 11:38:41;;;;;;;4.63;1.40;;;10.40;99.90;;;;;;5116536;28;20035;-75
2022/04/07 11:41:12;;;;;;;5.85;2.20;;;9.90;99.90;;;;;;5117204;28;20036;-77
2022/04/07 11:43:39;;;;;;;6.03;2.00;;;9.80;99.90;;;;;;5116693;28;20100;-76
2022/04/07 11:46:06;;;;;;;5.88;1.40;;;10.50;99.90;;;;;;5116710;28;20027;-80
2022/04/07 11:48:39;;;;;;;6.07;1.73;;;10.60;99.90;;;;;;5118674;28;20100;-77
2022/04/07 11:51:12;;;;;;;8.57;1.90;;;10.40;99.90;;;;;;5120660;28;20023;-77
2022/04/07 11:53:41;;;;;;;4.95;1.55;;;10.90;99.90;;;;;;5119683;27;20020;-78
2022/04/07 11:56:20;;;;;;;9.88;1.73;;;12.20;99.90;;;;;;5118773;28;20388;-77
2022/04/07 11:58:55;;;;;;;9.10;2.10;;;13.60;99.90;;;;;;5120004;28;20034;-76
2022/04/07 12:01:22;;;;;;;3.75;1.58;;;13.60;99.90;;;;;;5121858;28;20019;-76
2022/04/07 12:03:52;;;;;;;6.20;1.52;;;13.50;99.90;;;;;;5118500;28;20080;-76
2022/04/07 12:06:21;;;;;;;5.28;1.33;;;14.00;99.90;;;;;;5121019;28;20051;-76
2022/04/07 12:08:47;;;;;;;5.40;1.60;;;14.70;99.90;;;;;;5118194;28;20073;-75
2022/04/07 12:11:13;;;;;;;6.70;1.75;;;14.70;99.90;;;;;;5117169;28;20087;-76
2022/04/07 12:13:38;;;;;;;5.55;1.38;;;14.80;99.90;;;;;;5116384;28;20059;-74
2022/04/07 12:16:08;;;;;;;4.18;1.60;;;14.50;99.90;;;;;;5116835;27;20043;-77
2022/04/07 12:18:35;;;;;;;7.68;1.60;;;15.00;99.90;;;;;;5117826;28;20064;-76
2022/04/07 12:21:05;;;;;;;9.25;1.65;;;16.00;99.90;;;;;;5116941;28;20030;-76
2022/04/07 12:23:31;;;;;;;5.75;1.48;;;16.30;99.90;;;;;;5116059;28;20031;-73
2022/04/07 12:26:01;;;;;;;7.13;1.70;;;16.10;99.90;;;;;;5114751;28;20048;-74
2022/04/07 12:28:38;;;;;;;4.88;1.52;;;16.70;99.90;;;;;;5116862;28;20054;-75
2022/04/07 12:31:11;;;;;;;4.80;1.77;;;17.70;99.90;;;;;;5115810;28;20024;-76
2022/04/07 12:34:13;;;;;;;14.82;1.65;;;18.30;99.20;;;;;;5116865;28;20027;-75
2022/04/07 12:36:40;;;;;;;9.38;2.63;;;19.00;96.60;;;;;;5117175;28;20064;-78
2022/04/07 12:39:11;;;;;;;7.13;1.50;;;19.80;93.70;;;;;;5117591;28;20031;-77
2022/04/07 12:41:41;;;;;;;4.07;1.55;;;20.60;89.30;;;;;;5117381;28;20396;-76
2022/04/07 12:44:08;;;;;;;3.05;1.10;;;21.00;88.80;;;;;;5120733;28;20051;-76